sensor_id;sensor_type;location;lat;lon;timestamp;pressure;altitude;pressure_sealevel;temperature
71960;BMP280;59832;51.146;14.024;2023-05-07T00:02:24;98721.81;;;8.08
71960;BMP280;59832;51.146;14.024;2023-05-07T00:04:52;98708.31;;;7.96
71960;BMP280;59832;51.146;14.024;2023-05-07T00:07:18;98713.13;;;7.89
71960;BMP280;59832;51.146;14.024;2023-05-07T00:09:44;98717.53;;;8.00
71960;BMP280;59832;51.146;14.024;2023-05-07T00:12:11;98711.63;;;8.17
71960;BMP280;59832;51.146;14.024;2023-05-07T00:14:37;98712.66;;;8.16
71960;BMP280;59832;51.146;14.024;2023-05-07T00:17:04;98708.53;;;8.11
71960;BMP280;59832;51.146;14.024;2023-05-07T00:19:30;98701.91;;;8.19
71960;BMP280;59832;51.146;14.024;2023-05-07T00:21:58;98702.22;;;8.18
71960;BMP280;59832;51.146;14.024;2023-05-07T00:24:24;98707.22;;;8.26
71960;BMP280;59832;51.146;14.024;2023-05-07T00:26:51;98698.72;;;8.22
71960;BMP280;59832;51.146;14.024;2023-05-07T00:29:18;98696.94;;;8.23
71960;BMP280;59832;51.146;14.024;2023-05-07T00:31:45;98706.34;;;8.01
71960;BMP280;59832;51.146;14.024;2023-05-07T00:34:11;98706.56;;;8.17
71960;BMP280;59832;51.146;14.024;2023-05-07T00:36:38;98700.06;;;8.07
71960;BMP280;59832;51.146;14.024;2023-05-07T00:39:04;98704.38;;;8.07
71960;BMP280;59832;51.146;14.024;2023-05-07T00:41:30;98706.06;;;8.03
71960;BMP280;59832;51.146;14.024;2023-05-07T00:43:57;98712.91;;;8.02
71960;BMP280;59832;51.146;14.024;2023-05-07T00:46:24;98712.09;;;8.10
71960;BMP280;59832;51.146;14.024;2023-05-07T00:48:50;98707.22;;;8.05
71960;BMP280;59832;51.146;14.024;2023-05-07T00:51:17;98702.44;;;8.04
71960;BMP280;59832;51.146;14.024;2023-05-07T00:53:44;98704.16;;;7.91
71960;BMP280;59832;51.146;14.024;2023-05-07T00:56:11;98707.84;;;8.02
71960;BMP280;59832;51.146;14.024;2023-05-07T00:58:38;98707.97;;;8.06
71960;BMP280;59832;51.146;14.024;2023-05-07T01:01:04;98704.44;;;8.19
71960;BMP280;59832;51.146;14.024;2023-05-07T01:03:31;98709.94;;;8.00
71960;BMP280;59832;51.146;14.024;2023-05-07T01:05:58;98723.16;;;7.85
71960;BMP280;59832;51.146;14.024;2023-05-07T01:08:27;98714.13;;;7.96
71960;BMP280;59832;51.146;14.024;2023-05-07T01:10:56;98719.47;;;7.74
71960;BMP280;59832;51.146;14.024;2023-05-07T01:13:24;98713.97;;;7.72
71960;BMP280;59832;51.146;14.024;2023-05-07T01:15:50;98722.25;;;7.52
71960;BMP280;59832;51.146;14.024;2023-05-07T01:18:17;98722.09;;;7.57
71960;BMP280;59832;51.146;14.024;2023-05-07T01:20:44;98719.25;;;7.58
71960;BMP280;59832;51.146;14.024;2023-05-07T01:23:11;98709.28;;;7.53
71960;BMP280;59832;51.146;14.024;2023-05-07T01:25:38;98719.63;;;7.40
71960;BMP280;59832;51.146;14.024;2023-05-07T01:28:04;98710.88;;;7.28
71960;BMP280;59832;51.146;14.024;2023-05-07T01:30:33;98713.06;;;7.39
71960;BMP280;59832;51.146;14.024;2023-05-07T01:35:30;98718.63;;;7.23
71960;BMP280;59832;51.146;14.024;2023-05-07T01:37:58;98722.47;;;7.38
71960;BMP280;59832;51.146;14.024;2023-05-07T01:40:25;98726.31;;;7.36
71960;BMP280;59832;51.146;14.024;2023-05-07T01:42:52;98726.69;;;7.25
71960;BMP280;59832;51.146;14.024;2023-05-07T01:45:19;98720.09;;;7.33
71960;BMP280;59832;51.146;14.024;2023-05-07T01:47:46;98719.34;;;7.33
71960;BMP280;59832;51.146;14.024;2023-05-07T01:50:14;98721.16;;;7.23
71960;BMP280;59832;51.146;14.024;2023-05-07T01:52:41;98720.47;;;7.44
71960;BMP280;59832;51.146;14.024;2023-05-07T01:55:08;98724.88;;;7.26
71960;BMP280;59832;51.146;14.024;2023-05-07T01:57:35;98723.38;;;7.34
71960;BMP280;59832;51.146;14.024;2023-05-07T02:00:02;98726.19;;;7.32
71960;BMP280;59832;51.146;14.024;2023-05-07T02:02:32;98728.47;;;7.63
71960;BMP280;59832;51.146;14.024;2023-05-07T02:04:59;98726.38;;;7.18
71960;BMP280;59832;51.146;14.024;2023-05-07T02:07:27;98729.47;;;7.41
71960;BMP280;59832;51.146;14.024;2023-05-07T02:09:53;98724.44;;;7.24
71960;BMP280;59832;51.146;14.024;2023-05-07T02:12:22;98719.41;;;7.15
71960;BMP280;59832;51.146;14.024;2023-05-07T02:14:49;98716.69;;;7.20
71960;BMP280;59832;51.146;14.024;2023-05-07T02:17:16;98721.94;;;7.15
71960;BMP280;59832;51.146;14.024;2023-05-07T02:19:42;98721.31;;;7.10
71960;BMP280;59832;51.146;14.024;2023-05-07T02:22:09;98719.41;;;7.15
71960;BMP280;59832;51.146;14.024;2023-05-07T02:24:35;98730.56;;;7.14
71960;BMP280;59832;51.146;14.024;2023-05-07T02:27:02;98725.78;;;7.21
71960;BMP280;59832;51.146;14.024;2023-05-07T02:29:29;98732.91;;;7.28
71960;BMP280;59832;51.146;14.024;2023-05-07T02:31:56;98735.56;;;7.32
71960;BMP280;59832;51.146;14.024;2023-05-07T02:34:23;98737.22;;;7.27
71960;BMP280;59832;51.146;14.024;2023-05-07T02:36:49;98737.53;;;7.26
71960;BMP280;59832;51.146;14.024;2023-05-07T02:39:16;98733.81;;;7.23
71960;BMP280;59832;51.146;14.024;2023-05-07T02:41:42;98739.19;;;7.13
71960;BMP280;59832;51.146;14.024;2023-05-07T02:44:09;98740.84;;;7.18
71960;BMP280;59832;51.146;14.024;2023-05-07T02:46:35;98748.75;;;7.08
71960;BMP280;59832;51.146;14.024;2023-05-07T02:49:02;98744.59;;;6.86
71960;BMP280;59832;51.146;14.024;2023-05-07T02:51:30;98744.88;;;7.02
71960;BMP280;59832;51.146;14.024;2023-05-07T02:53:56;98748.75;;;6.99
71960;BMP280;59832;51.146;14.024;2023-05-07T02:56:25;98749.03;;;7.15
71960;BMP280;59832;51.146;14.024;2023-05-07T02:58:52;98737.41;;;7.14
71960;BMP280;59832;51.146;14.024;2023-05-07T03:01:18;98737.75;;;7.04
71960;BMP280;59832;51.146;14.024;2023-05-07T03:03:45;98746.22;;;6.99
71960;BMP280;59832;51.146;14.024;2023-05-07T03:06:11;98741.31;;;6.94
71960;BMP280;59832;51.146;14.024;2023-05-07T03:08:37;98739.25;;;6.88
71960;BMP280;59832;51.146;14.024;2023-05-07T03:11:04;98733.44;;;6.87
71960;BMP280;59832;51.146;14.024;2023-05-07T03:13:31;98735.41;;;6.81
71960;BMP280;59832;51.146;14.024;2023-05-07T03:15:57;98743.25;;;6.97
71960;BMP280;59832;51.146;14.024;2023-05-07T03:18:23;98741.47;;;6.98
71960;BMP280;59832;51.146;14.024;2023-05-07T03:20:50;98738.03;;;6.85
71960;BMP280;59832;51.146;14.024;2023-05-07T03:23:16;98734.19;;;6.79
71960;BMP280;59832;51.146;14.024;2023-05-07T03:25:43;98742.81;;;6.78
71960;BMP280;59832;51.146;14.024;2023-05-07T03:28:09;98734.19;;;6.88
71960;BMP280;59832;51.146;14.024;2023-05-07T03:30:35;98741.75;;;6.96
71960;BMP280;59832;51.146;14.024;2023-05-07T03:33:02;98746.09;;;6.87
71960;BMP280;59832;51.146;14.024;2023-05-07T03:35:28;98748.16;;;6.85
71960;BMP280;59832;51.146;14.024;2023-05-07T03:37:55;98748.34;;;6.80
71960;BMP280;59832;51.146;14.024;2023-05-07T03:40:21;98750.38;;;6.95
71960;BMP280;59832;51.146;14.024;2023-05-07T03:42:48;98752.19;;;7.03
71960;BMP280;59832;51.146;14.024;2023-05-07T03:45:14;98743.28;;;6.89
71960;BMP280;59832;51.146;14.024;2023-05-07T03:47:41;98744.91;;;6.76
71960;BMP280;59832;51.146;14.024;2023-05-07T03:50:07;98751.31;;;6.65
71960;BMP280;59832;51.146;14.024;2023-05-07T03:52:35;98749.97;;;6.76
71960;BMP280;59832;51.146;14.024;2023-05-07T03:55:01;98748.03;;;6.73
71960;BMP280;59832;51.146;14.024;2023-05-07T03:57:27;98760.69;;;6.81
71960;BMP280;59832;51.146;14.024;2023-05-07T03:59:54;98764.25;;;6.72
71960;BMP280;59832;51.146;14.024;2023-05-07T04:02:20;98759.03;;;6.77
71960;BMP280;59832;51.146;14.024;2023-05-07T04:04:48;98763.03;;;6.95
71960;BMP280;59832;51.146;14.024;2023-05-07T04:07:15;98760.53;;;6.86
71960;BMP280;59832;51.146;14.024;2023-05-07T04:09:42;98759.63;;;6.82
71960;BMP280;59832;51.146;14.024;2023-05-07T04:12:08;98761.88;;;6.93
71960;BMP280;59832;51.146;14.024;2023-05-07T04:14:35;98770.06;;;6.72
71960;BMP280;59832;51.146;14.024;2023-05-07T04:17:01;98765.44;;;6.74
71960;BMP280;59832;51.146;14.024;2023-05-07T04:19:28;98768.28;;;6.64
71960;BMP280;59832;51.146;14.024;2023-05-07T04:21:55;98772.16;;;6.79
71960;BMP280;59832;51.146;14.024;2023-05-07T04:24:21;98771.09;;;6.63
71960;BMP280;59832;51.146;14.024;2023-05-07T04:26:48;98767.06;;;6.70
71960;BMP280;59832;51.146;14.024;2023-05-07T04:29:14;98775.88;;;6.64
71960;BMP280;59832;51.146;14.024;2023-05-07T04:31:40;98769.59;;;6.70
71960;BMP280;59832;51.146;14.024;2023-05-07T04:34:11;98771.22;;;6.75
71960;BMP280;59832;51.146;14.024;2023-05-07T04:36:38;98772.28;;;6.74
71960;BMP280;59832;51.146;14.024;2023-05-07T04:39:04;98776.47;;;6.78
71960;BMP280;59832;51.146;14.024;2023-05-07T04:41:31;98781.34;;;6.83
71960;BMP280;59832;51.146;14.024;2023-05-07T04:43:59;98780.91;;;6.73
71960;BMP280;59832;51.146;14.024;2023-05-07T04:46:25;98780.00;;;6.69
71960;BMP280;59832;51.146;14.024;2023-05-07T04:48:52;98781.69;;;6.82
71960;BMP280;59832;51.146;14.024;2023-05-07T04:51:18;98787.91;;;6.93
71960;BMP280;59832;51.146;14.024;2023-05-07T04:53:44;98782.56;;;6.77
71960;BMP280;59832;51.146;14.024;2023-05-07T04:56:11;98791.63;;;6.87
71960;BMP280;59832;51.146;14.024;2023-05-07T04:58:37;98792.53;;;7.00
71960;BMP280;59832;51.146;14.024;2023-05-07T05:01:04;98797.59;;;7.00
71960;BMP280;59832;51.146;14.024;2023-05-07T05:03:31;98805.31;;;6.86
71960;BMP280;59832;51.146;14.024;2023-05-07T05:05:57;98810.25;;;6.82
71960;BMP280;59832;51.146;14.024;2023-05-07T05:08:25;98807.84;;;6.77
71960;BMP280;59832;51.146;14.024;2023-05-07T05:10:52;98812.06;;;6.82
71960;BMP280;59832;51.146;14.024;2023-05-07T05:13:19;98810.38;;;6.86
71960;BMP280;59832;51.146;14.024;2023-05-07T05:15:45;98808.78;;;6.81
71960;BMP280;59832;51.146;14.024;2023-05-07T05:18:12;98810.38;;;6.86
71960;BMP280;59832;51.146;14.024;2023-05-07T05:20:38;98820.38;;;6.91
71960;BMP280;59832;51.146;14.024;2023-05-07T05:23:05;98825.88;;;6.93
71960;BMP280;59832;51.146;14.024;2023-05-07T05:25:32;98832.69;;;6.84
71960;BMP280;59832;51.146;14.024;2023-05-07T05:27:58;98830.31;;;6.96
71960;BMP280;59832;51.146;14.024;2023-05-07T05:30:25;98823.19;;;6.98
71960;BMP280;59832;51.146;14.024;2023-05-07T05:32:51;98819.47;;;7.04
71960;BMP280;59832;51.146;14.024;2023-05-07T05:35:18;98818.44;;;6.97
71960;BMP280;59832;51.146;14.024;2023-05-07T05:37:44;98807.13;;;7.03
71960;BMP280;59832;51.146;14.024;2023-05-07T05:40:11;98816.78;;;7.01
71960;BMP280;59832;51.146;14.024;2023-05-07T05:42:37;98821.53;;;7.11
71960;BMP280;59832;51.146;14.024;2023-05-07T05:45:04;98823.19;;;6.98
71960;BMP280;59832;51.146;14.024;2023-05-07T05:47:31;98826.78;;;6.89
71960;BMP280;59832;51.146;14.024;2023-05-07T05:49:57;98831.81;;;6.97
71960;BMP280;59832;51.146;14.024;2023-05-07T05:52:24;98837.63;;;6.98
71960;BMP280;59832;51.146;14.024;2023-05-07T05:54:51;98840.63;;;7.00
71960;BMP280;59832;51.146;14.024;2023-05-07T05:57:17;98844.50;;;7.06
71960;BMP280;59832;51.146;14.024;2023-05-07T05:59:44;98837.78;;;7.10
71960;BMP280;59832;51.146;14.024;2023-05-07T06:02:11;98835.41;;;7.13
71960;BMP280;59832;51.146;14.024;2023-05-07T06:04:37;98835.84;;;7.15
71960;BMP280;59832;51.146;14.024;2023-05-07T06:07:03;98829.88;;;7.20
71960;BMP280;59832;51.146;14.024;2023-05-07T06:09:30;98833.44;;;7.27
71960;BMP280;59832;51.146;14.024;2023-05-07T06:11:56;98840.88;;;7.33
71960;BMP280;59832;51.146;14.024;2023-05-07T06:14:25;98844.47;;;7.40
71960;BMP280;59832;51.146;14.024;2023-05-07T06:16:52;98846.72;;;7.42
71960;BMP280;59832;51.146;14.024;2023-05-07T06:19:18;98854.13;;;7.47
71960;BMP280;59832;51.146;14.024;2023-05-07T06:21:49;98860.13;;;7.42
71960;BMP280;59832;51.146;14.024;2023-05-07T06:24:16;98856.94;;;7.54
71960;BMP280;59832;51.146;14.024;2023-05-07T06:26:42;98859.03;;;7.43
71960;BMP280;59832;51.146;14.024;2023-05-07T06:29:09;98869.63;;;7.45
71960;BMP280;59832;51.146;14.024;2023-05-07T06:31:35;98864.09;;;7.43
71960;BMP280;59832;51.146;14.024;2023-05-07T06:34:02;98870.34;;;7.54
71960;BMP280;59832;51.146;14.024;2023-05-07T06:36:28;98877.22;;;7.45
71960;BMP280;59832;51.146;14.024;2023-05-07T06:38:55;98873.66;;;7.46
71960;BMP280;59832;51.146;14.024;2023-05-07T06:41:22;98872.16;;;7.45
71960;BMP280;59832;51.146;14.024;2023-05-07T06:43:48;98872.28;;;7.57
71960;BMP280;59832;51.146;14.024;2023-05-07T06:46:15;98872.16;;;7.45
71960;BMP280;59832;51.146;14.024;2023-05-07T06:48:41;98878.72;;;7.38
71960;BMP280;59832;51.146;14.024;2023-05-07T06:51:08;98876.19;;;7.46
71960;BMP280;59832;51.146;14.024;2023-05-07T06:53:35;98879.16;;;7.31
71960;BMP280;59832;51.146;14.024;2023-05-07T06:56:01;98872.63;;;7.39
71960;BMP280;59832;51.146;14.024;2023-05-07T06:58:28;98869.78;;;7.40
71960;BMP280;59832;51.146;14.024;2023-05-07T07:00:54;98873.06;;;7.49
71960;BMP280;59832;51.146;14.024;2023-05-07T07:03:20;98874.69;;;7.45
71960;BMP280;59832;51.146;14.024;2023-05-07T07:05:47;98878.13;;;7.49
71960;BMP280;59832;51.146;14.024;2023-05-07T07:08:13;98884.22;;;7.48
71960;BMP280;59832;51.146;14.024;2023-05-07T07:10:40;98884.97;;;7.57
71960;BMP280;59832;51.146;14.024;2023-05-07T07:13:07;98885.88;;;7.53
71960;BMP280;59832;51.146;14.024;2023-05-07T07:15:33;98898.50;;;7.44
71960;BMP280;59832;51.146;14.024;2023-05-07T07:18:00;98896.31;;;7.51
71960;BMP280;59832;51.146;14.024;2023-05-07T07:20:26;98896.91;;;7.48
71960;BMP280;59832;51.146;14.024;2023-05-07T07:22:52;98891.22;;;7.60
71960;BMP280;59832;51.146;14.024;2023-05-07T07:25:19;98897.78;;;7.52
71960;BMP280;59832;51.146;14.024;2023-05-07T07:27:45;98889.75;;;7.50
71960;BMP280;59832;51.146;14.024;2023-05-07T07:30:12;98890.31;;;7.64
71960;BMP280;59832;51.146;14.024;2023-05-07T07:32:39;98890.63;;;7.63
71960;BMP280;59832;51.146;14.024;2023-05-07T07:35:06;98898.34;;;7.66
71960;BMP280;59832;51.146;14.024;2023-05-07T07:37:32;98895.81;;;7.75
71960;BMP280;59832;51.146;14.024;2023-05-07T07:39:59;98897.00;;;7.86
71960;BMP280;59832;51.146;14.024;2023-05-07T07:42:26;98902.38;;;7.67
71960;BMP280;59832;51.146;14.024;2023-05-07T07:44:52;98902.81;;;7.69
71960;BMP280;59832;51.146;14.024;2023-05-07T07:47:18;98906.53;;;7.81
71960;BMP280;59832;51.146;14.024;2023-05-07T07:49:45;98901.75;;;7.79
71960;BMP280;59832;51.146;14.024;2023-05-07T07:52:11;98904.00;;;7.72
71960;BMP280;59832;51.146;14.024;2023-05-07T07:54:38;98906.53;;;7.81
71960;BMP280;59832;51.146;14.024;2023-05-07T07:57:04;98914.75;;;7.60
71960;BMP280;59832;51.146;14.024;2023-05-07T07:59:31;98909.34;;;7.79
71960;BMP280;59832;51.146;14.024;2023-05-07T08:01:57;98910.72;;;7.85
71960;BMP280;59832;51.146;14.024;2023-05-07T08:04:24;98916.19;;;7.96
71960;BMP280;59832;51.146;14.024;2023-05-07T08:06:50;98924.19;;;8.06
71960;BMP280;59832;51.146;14.024;2023-05-07T08:09:17;98919.75;;;8.03
71960;BMP280;59832;51.146;14.024;2023-05-07T08:11:43;98927.03;;;8.05
71960;BMP280;59832;51.146;14.024;2023-05-07T08:14:11;98918.59;;;7.84
71960;BMP280;59832;51.146;14.024;2023-05-07T08:16:37;98919.31;;;7.93
71960;BMP280;59832;51.146;14.024;2023-05-07T08:19:04;98920.97;;;7.80
71960;BMP280;59832;51.146;14.024;2023-05-07T08:21:30;98940.38;;;7.67
71960;BMP280;59832;51.146;14.024;2023-05-07T08:24:00;98926.06;;;7.71
71960;BMP280;59832;51.146;14.024;2023-05-07T08:26:26;98922.19;;;7.65
71960;BMP280;59832;51.146;14.024;2023-05-07T08:28:52;98919.19;;;7.81
71960;BMP280;59832;51.146;14.024;2023-05-07T08:31:22;98928.84;;;7.87
71960;BMP280;59832;51.146;14.024;2023-05-07T08:33:49;98928.31;;;7.64
71960;BMP280;59832;51.146;14.024;2023-05-07T08:36:16;98929.66;;;7.62
71960;BMP280;59832;51.146;14.024;2023-05-07T08:38:42;98934.75;;;7.53
71960;BMP280;59832;51.146;14.024;2023-05-07T08:41:11;98944.56;;;7.72
71960;BMP280;59832;51.146;14.024;2023-05-07T08:43:40;98943.50;;;7.82
71960;BMP280;59832;51.146;14.024;2023-05-07T08:46:09;98942.88;;;7.93
71960;BMP280;59832;51.146;14.024;2023-05-07T08:48:37;98945.56;;;7.88
71960;BMP280;59832;51.146;14.024;2023-05-07T08:51:04;98955.88;;;7.83
71960;BMP280;59832;51.146;14.024;2023-05-07T08:53:31;98948.22;;;8.00
71960;BMP280;59832;51.146;14.024;2023-05-07T08:55:58;98948.72;;;7.85
71960;BMP280;59832;51.146;14.024;2023-05-07T08:58:25;98962.31;;;7.63
71960;BMP280;59832;51.146;14.024;2023-05-07T09:00:52;98951.69;;;7.79
71960;BMP280;59832;51.146;14.024;2023-05-07T09:03:19;98972.44;;;7.72
71960;BMP280;59832;51.146;14.024;2023-05-07T09:05:46;98955.72;;;7.71
71960;BMP280;59832;51.146;14.024;2023-05-07T09:08:15;98970.94;;;7.62
71960;BMP280;59832;51.146;14.024;2023-05-07T09:10:42;98964.84;;;7.63
71960;BMP280;59832;51.146;14.024;2023-05-07T09:13:08;98966.00;;;7.66
71960;BMP280;59832;51.146;14.024;2023-05-07T09:15:36;98960.03;;;7.79
71960;BMP280;59832;51.146;14.024;2023-05-07T09:18:03;98959.69;;;8.06
71960;BMP280;59832;51.146;14.024;2023-05-07T09:20:30;98966.19;;;8.25
71960;BMP280;59832;51.146;14.024;2023-05-07T09:22:57;98964.56;;;8.20
71960;BMP280;59832;51.146;14.024;2023-05-07T09:25:33;98963.03;;;8.36
71960;BMP280;59832;51.146;14.024;2023-05-07T09:28:01;98966.03;;;8.30
71960;BMP280;59832;51.146;14.024;2023-05-07T09:30:32;98971.06;;;8.38
71960;BMP280;59832;51.146;14.024;2023-05-07T09:32:59;98968.44;;;8.26
71960;BMP280;59832;51.146;14.024;2023-05-07T09:35:27;98975.13;;;8.31
71960;BMP280;59832;51.146;14.024;2023-05-07T09:37:55;98967.19;;;8.41
71960;BMP280;59832;51.146;14.024;2023-05-07T09:40:23;98971.75;;;8.56
71960;BMP280;59832;51.146;14.024;2023-05-07T09:42:50;98968.69;;;8.71
71960;BMP280;59832;51.146;14.024;2023-05-07T09:45:28;98978.47;;;8.81
71960;BMP280;59832;51.146;14.024;2023-05-07T09:47:56;98969.84;;;8.74
71960;BMP280;59832;51.146;14.024;2023-05-07T09:50:28;98957.88;;;8.83
71960;BMP280;59832;51.146;14.024;2023-05-07T09:52:55;98963.19;;;8.90
71960;BMP280;59832;51.146;14.024;2023-05-07T09:55:22;98966.91;;;8.72
71960;BMP280;59832;51.146;14.024;2023-05-07T09:57:50;98979.34;;;8.56
71960;BMP280;59832;51.146;14.024;2023-05-07T10:00:19;98971.00;;;8.55
71960;BMP280;59832;51.146;14.024;2023-05-07T10:02:52;98978.66;;;8.47
71960;BMP280;59832;51.146;14.024;2023-05-07T10:05:19;98963.16;;;8.78
71960;BMP280;59832;51.146;14.024;2023-05-07T10:07:47;98957.16;;;8.74
71960;BMP280;59832;51.146;14.024;2023-05-07T10:10:14;98967.06;;;8.96
71960;BMP280;59832;51.146;14.024;2023-05-07T10:12:42;98964.03;;;9.02
71960;BMP280;59832;51.146;14.024;2023-05-07T10:15:09;98975.75;;;9.16
71960;BMP280;59832;51.146;14.024;2023-05-07T10:17:38;98960.59;;;9.07
71960;BMP280;59832;51.146;14.024;2023-05-07T10:20:06;98978.38;;;9.61
71960;BMP280;59832;51.146;14.024;2023-05-07T10:22:44;98969.25;;;9.27
71960;BMP280;59832;51.146;14.024;2023-05-07T10:25:21;98970.88;;;9.43
71960;BMP280;59832;51.146;14.024;2023-05-07T10:27:49;98951.22;;;9.52
71960;BMP280;59832;51.146;14.024;2023-05-07T10:30:20;98955.31;;;9.78
71960;BMP280;59832;51.146;14.024;2023-05-07T10:32:49;98960.00;;;9.55
71960;BMP280;59832;51.146;14.024;2023-05-07T10:35:22;98972.38;;;9.77
71960;BMP280;59832;51.146;14.024;2023-05-07T10:37:49;98964.63;;;9.74
71960;BMP280;59832;51.146;14.024;2023-05-07T10:40:15;98963.56;;;9.63
71960;BMP280;59832;51.146;14.024;2023-05-07T10:43:03;98969.22;;;9.47
71960;BMP280;59832;51.146;14.024;2023-05-07T10:45:36;98963.88;;;9.73
71960;BMP280;59832;51.146;14.024;2023-05-07T10:48:12;98967.09;;;9.94
71960;BMP280;59832;51.146;14.024;2023-05-07T10:51:20;98960.56;;;10.06
71960;BMP280;59832;51.146;14.024;2023-05-07T10:53:47;98966.50;;;10.34
71960;BMP280;59832;51.146;14.024;2023-05-07T10:58:43;98957.78;;;10.59
71960;BMP280;59832;51.146;14.024;2023-05-07T11:01:09;98963.75;;;10.39
71960;BMP280;59832;51.146;14.024;2023-05-07T11:04:12;98961.75;;;10.57
71960;BMP280;59832;51.146;14.024;2023-05-07T11:06:39;98979.88;;;10.31
71960;BMP280;59832;51.146;14.024;2023-05-07T11:09:05;98970.34;;;10.40
71960;BMP280;59832;51.146;14.024;2023-05-07T11:11:49;98973.59;;;10.65
71960;BMP280;59832;51.146;14.024;2023-05-07T11:17:09;98974.88;;;10.71
71960;BMP280;59832;51.146;14.024;2023-05-07T11:19:53;98974.69;;;10.52
71960;BMP280;59832;51.146;14.024;2023-05-07T11:24:59;98965.22;;;10.64
71960;BMP280;59832;51.146;14.024;2023-05-07T11:27:26;98957.19;;;10.90
71960;BMP280;59832;51.146;14.024;2023-05-07T11:29:53;98957.19;;;11.02
71960;BMP280;59832;51.146;14.024;2023-05-07T11:32:23;98971.91;;;11.36
71960;BMP280;59832;51.146;14.024;2023-05-07T11:34:54;98958.91;;;11.26
71960;BMP280;59832;51.146;14.024;2023-05-07T11:37:22;98962.31;;;11.18
71960;BMP280;59832;51.146;14.024;2023-05-07T11:39:49;98958.53;;;11.12
71960;BMP280;59832;51.146;14.024;2023-05-07T11:42:28;98965.84;;;11.13
71960;BMP280;59832;51.146;14.024;2023-05-07T11:44:54;98970.53;;;11.39
71960;BMP280;59832;51.146;14.024;2023-05-07T11:47:21;98958.28;;;11.17
71960;BMP280;59832;51.146;14.024;2023-05-07T11:49:48;98971.00;;;11.45
71960;BMP280;59832;51.146;14.024;2023-05-07T11:52:16;98965.66;;;11.34
71960;BMP280;59832;51.146;14.024;2023-05-07T11:54:57;98975.75;;;11.30
71960;BMP280;59832;51.146;14.024;2023-05-07T11:57:24;98967.38;;;11.30
71960;BMP280;59832;51.146;14.024;2023-05-07T11:59:57;98964.81;;;11.30
71960;BMP280;59832;51.146;14.024;2023-05-07T12:02:25;98964.59;;;11.35
71960;BMP280;59832;51.146;14.024;2023-05-07T12:04:52;98964.78;;;11.42
71960;BMP280;59832;51.146;14.024;2023-05-07T12:07:19;98968.81;;;11.59
71960;BMP280;59832;51.146;14.024;2023-05-07T12:09:46;98961.56;;;12.23
71960;BMP280;59832;51.146;14.024;2023-05-07T12:12:13;98972.22;;;11.94
71960;BMP280;59832;51.146;14.024;2023-05-07T12:14:44;98967.50;;;12.43
71960;BMP280;59832;51.146;14.024;2023-05-07T12:17:14;98968.75;;;12.53
71960;BMP280;59832;51.146;14.024;2023-05-07T12:19:42;98968.19;;;12.09
71960;BMP280;59832;51.146;14.024;2023-05-07T12:22:09;98982.00;;;11.76
71960;BMP280;59832;51.146;14.024;2023-05-07T12:24:49;98979.09;;;11.47
71960;BMP280;59832;51.146;14.024;2023-05-07T12:27:16;98981.03;;;11.38
71960;BMP280;59832;51.146;14.024;2023-05-07T12:29:47;98983.03;;;11.16
71960;BMP280;59832;51.146;14.024;2023-05-07T12:32:17;98984.59;;;10.93
71960;BMP280;59832;51.146;14.024;2023-05-07T12:34:45;98972.06;;;11.28
71960;BMP280;59832;51.146;14.024;2023-05-07T12:37:12;98980.06;;;11.58
71960;BMP280;59832;51.146;14.024;2023-05-07T12:39:47;98987.00;;;11.57
71960;BMP280;59832;51.146;14.024;2023-05-07T12:42:19;98981.28;;;12.07
71960;BMP280;59832;51.146;14.024;2023-05-07T12:44:46;98984.81;;;11.87
71960;BMP280;59832;51.146;14.024;2023-05-07T12:47:12;99005.94;;;11.56
71960;BMP280;59832;51.146;14.024;2023-05-07T12:49:41;98999.38;;;11.15
71960;BMP280;59832;51.146;14.024;2023-05-07T12:52:07;99000.38;;;10.99
71960;BMP280;59832;51.146;14.024;2023-05-07T12:54:37;98987.19;;;11.36
71960;BMP280;59832;51.146;14.024;2023-05-07T12:57:08;98986.81;;;11.50
71960;BMP280;59832;51.146;14.024;2023-05-07T12:59:41;98983.47;;;11.62
71960;BMP280;59832;51.146;14.024;2023-05-07T13:02:08;98976.75;;;12.01
71960;BMP280;59832;51.146;14.024;2023-05-07T13:04:35;98980.22;;;11.33
71960;BMP280;59832;51.146;14.024;2023-05-07T13:07:02;98980.47;;;11.44
71960;BMP280;59832;51.146;14.024;2023-05-07T13:09:29;98974.25;;;11.57
71960;BMP280;59832;51.146;14.024;2023-05-07T13:11:55;98979.72;;;11.71
71960;BMP280;59832;51.146;14.024;2023-05-07T13:14:21;98968.22;;;11.34
71960;BMP280;59832;51.146;14.024;2023-05-07T13:16:48;98978.25;;;11.15
71960;BMP280;59832;51.146;14.024;2023-05-07T13:19:15;98983.06;;;11.32
71960;BMP280;59832;51.146;14.024;2023-05-07T13:21:42;98987.94;;;11.37
71960;BMP280;59832;51.146;14.024;2023-05-07T13:24:08;98985.69;;;11.08
71960;BMP280;59832;51.146;14.024;2023-05-07T13:26:34;98975.03;;;11.30
71960;BMP280;59832;51.146;14.024;2023-05-07T13:29:01;98986.28;;;11.29
71960;BMP280;59832;51.146;14.024;2023-05-07T13:31:27;98988.38;;;11.11
71960;BMP280;59832;51.146;14.024;2023-05-07T13:33:54;98983.22;;;11.23
71960;BMP280;59832;51.146;14.024;2023-05-07T13:36:22;98970.53;;;11.39
71960;BMP280;59832;51.146;14.024;2023-05-07T13:38:50;98969.94;;;11.30
71960;BMP280;59832;51.146;14.024;2023-05-07T13:41:17;98977.78;;;11.25
71960;BMP280;59832;51.146;14.024;2023-05-07T13:43:44;98976.16;;;11.32
71960;BMP280;59832;51.146;14.024;2023-05-07T13:46:10;98977.00;;;11.09
71960;BMP280;59832;51.146;14.024;2023-05-07T13:48:37;98974.28;;;11.29
71960;BMP280;59832;51.146;14.024;2023-05-07T13:51:04;98978.31;;;11.03
71960;BMP280;59832;51.146;14.024;2023-05-07T13:53:30;98982.16;;;10.97
71960;BMP280;59832;51.146;14.024;2023-05-07T13:55:57;98978.84;;;11.24
71960;BMP280;59832;51.146;14.024;2023-05-07T13:58:23;98974.50;;;11.24
71960;BMP280;59832;51.146;14.024;2023-05-07T14:00:49;98974.84;;;10.95
71960;BMP280;59832;51.146;14.024;2023-05-07T14:03:16;98993.09;;;11.25
71960;BMP280;59832;51.146;14.024;2023-05-07T14:05:43;98985.28;;;11.06
71960;BMP280;59832;51.146;14.024;2023-05-07T14:08:11;98992.47;;;10.88
71960;BMP280;59832;51.146;14.024;2023-05-07T14:10:40;98984.19;;;10.67
71960;BMP280;59832;51.146;14.024;2023-05-07T14:13:06;98977.44;;;10.99
71960;BMP280;59832;51.146;14.024;2023-05-07T14:15:33;98978.94;;;11.00
71960;BMP280;59832;51.146;14.024;2023-05-07T14:17:59;98979.41;;;11.17
71960;BMP280;59832;51.146;14.024;2023-05-07T14:20:26;98985.78;;;10.96